Weather at Gold Coast Life Saver Base

Public forecast

Using degrees Celsius for public forecast. Weather courtesy of forecast.io.

Closest aviation weather report (METAR) to Gold Coast Life Saver Base

Closest report is Gold Coast Airport, 12.3 nm (22.7 km) SE. Retrieved 2021/10/19 14:30 UTC (29 minutes ago):

YBCG 191430Z AUTO 25003KT 9999 // NCD 17/16 Q1014 RF000/0006

Closest aviation forecast (TAF) to Gold Coast Life Saver Base

Closest forecast is Gold Coast Airport, 12.3 nm (22.7 km) SE. Retrieved 2021/10/19 12:33 UTC (2 hours ago):

TAF YBCG 191114Z 1912/2012 23005KT 9999 SCT018 FM192100 30006KT 9999 FEW030 FM192300 07012KT 9999 FEW035 FM200900 01006KT 9999 SCT025 FM201100 29005KT 9999 BKN018